Map

Track Data

SID SEASON NUMBER BASIN SUBBASIN NAME ISO_TIME NATURE LAT LON WMO_WIND WMO_PRES WMO_AGENCY TRACK_TYPE DIST2LAND LANDFALL IFLAG USA_AGENCY USA_ATCF_ID USA_LAT USA_LON USA_RECORD USA_STATUS USA_WIND USA_PRES USA_SSHS USA_R34_NE USA_R34_SE USA_R34_SW USA_R34_NW USA_R50_NE USA_R50_SE USA_R50_SW USA_R50_NW USA_R64_NE USA_R64_SE USA_R64_SW USA_R64_NW USA_POCI USA_ROCI USA_RMW USA_EYE TOKYO_LAT TOKYO_LON TOKYO_GRADE TOKYO_WIND TOKYO_PRES TOKYO_R50_DIR TOKYO_R50_LONG TOKYO_R50_SHORT TOKYO_R30_DIR TOKYO_R30_LONG TOKYO_R30_SHORT TOKYO_LAND CMA_LAT CMA_LON CMA_CAT CMA_WIND CMA_PRES HKO_LAT HKO_LON HKO_CAT HKO_WIND HKO_PRES NEWDELHI_LAT NEWDELHI_LON NEWDELHI_GRADE NEWDELHI_WIND NEWDELHI_PRES NEWDELHI_CI NEWDELHI_DP NEWDELHI_POCI REUNION_LAT REUNION_LON REUNION_TYPE REUNION_WIND REUNION_PRES REUNION_TNUM REUNION_CI REUNION_RMW REUNION_R34_NE REUNION_R34_SE REUNION_R34_SW REUNION_R34_NW REUNION_R50_NE REUNION_R50_SE REUNION_R50_SW REUNION_R50_NW REUNION_R64_NE REUNION_R64_SE REUNION_R64_SW REUNION_R64_NW BOM_LAT BOM_LON BOM_TYPE BOM_WIND BOM_PRES BOM_TNUM BOM_CI BOM_RMW BOM_R34_NE BOM_R34_SE BOM_R34_SW BOM_R34_NW BOM_R50_NE BOM_R50_SE BOM_R50_SW BOM_R50_NW BOM_R64_NE BOM_R64_SE BOM_R64_SW BOM_R64_NW BOM_ROCI BOM_POCI BOM_EYE BOM_POS_METHOD BOM_PRES_METHOD NADI_LAT NADI_LON NADI_CAT NADI_WIND NADI_PRES WELLINGTON_LAT WELLINGTON_LON WELLINGTON_WIND WELLINGTON_PRES DS824_LAT DS824_LON DS824_STAGE DS824_WIND DS824_PRES TD9636_LAT TD9636_LON TD9636_STAGE TD9636_WIND TD9636_PRES TD9635_LAT TD9635_LON TD9635_WIND TD9635_PRES TD9635_ROCI NEUMANN_LAT NEUMANN_LON NEUMANN_CLASS NEUMANN_WIND NEUMANN_PRES MLC_LAT MLC_LON MLC_CLASS MLC_WIND MLC_PRES USA_GUST BOM_GUST BOM_GUST_PER REUNION_GUST REUNION_GUST_PER USA_SEAHGT USA_SEARAD_NE USA_SEARAD_SE USA_SEARAD_SW USA_SEARAD_NW STORM_SPEED STORM_DIR
1975007N08092 1975 2 NI BB NOT_NAMED 1975-01-06 12:00:00 TS 7.60000 92.4000 main 382 382 O________OO___ jtwc_io IO011975 7.60000 92.4000 -1 7.60000 92.4000 TC 25 7.60000 92.4000 1 2 24
1975007N08092 1975 2 NI BB NOT_NAMED 1975-01-06 15:00:00 TS 7.69562 92.4481 main 388 380 P________PP___ IO011975 7.69500 92.4425 -1 7.69500 92.4425 TC 25 7.69687 92.4594 1 2 27
1975007N08092 1975 2 NI BB NOT_NAMED 1975-01-06 18:00:00 TS 7.80166 92.5084 main 387 385 O________OP___ jtwc_io IO011975 7.80000 92.5000 -1 7.80000 92.5000 TC 25 7.80498 92.5251 1 3 31
1975007N08092 1975 2 NI BB NOT_NAMED 1975-01-06 21:00:00 TS 7.93020 92.5911 main 385 385 P________PP___ IO011975 7.92750 92.5850 -1 7.92750 92.5850 TC 25 7.93561 92.6032 1 4 33
1975007N08092 1975 2 NI BB NOT_NAMED 1975-01-07 00:00:00 TS 8.10000 92.7000 main 393 393 O________OO___ jtwc_io IO011975 8.10000 92.7000 -1 8.10000 92.7000 TC 25 8.10000 92.7000 1 5 32
1975007N08092 1975 2 NI BB NOT_NAMED 1975-01-07 03:00:00 TS 8.32981 92.8395 main 402 402 P________PP___ IO011975 8.34251 92.8500 -1 8.34251 92.8500 TC 25 8.30440 92.8187 1 6 30
1975007N08092 1975 2 NI BB NOT_NAMED 1975-01-07 06:00:00 TS 8.57835 92.9833 main 414 414 O________OP___ jtwc_io IO011975 8.60000 93.0000 -1 8.60000 93.0000 TC 25 8.53504 92.9499 1 5 29
1975007N08092 1975 2 NI BB NOT_NAMED 1975-01-07 09:00:00 TS 8.79604 93.0988 main 426 426 P________PP___ IO011975 8.80749 93.1075 -1 8.80749 93.1075 TC 25 8.77315 93.0812 1 5 27
1975007N08092 1975 2 NI BB NOT_NAMED 1975-01-07 12:00:00 TS 9.00000 93.2000 main 440 440 O________OO___ jtwc_io IO011975 9.00000 93.2000 -1 9.00000 93.2000 TC 25 9.00000 93.2000 1 5 26
1975007N08092 1975 2 NI BB NOT_NAMED 1975-01-07 15:00:00 TS 9.20010 93.3028 main 454 454 P________PP___ IO011975 9.20750 93.3075 -1 9.20750 93.3075 TC 25 9.18529 93.2935 1 4 26
1975007N08092 1975 2 NI BB NOT_NAMED 1975-01-07 18:00:00 TS 9.38582 93.3909 main 469 469 O________OP___ jtwc_io IO011975 9.40000 93.4000 -1 9.40000 93.4000 TC 25 9.35747 93.3726 1 4 24
1975007N08092 1975 2 NI BB NOT_NAMED 1975-01-07 21:00:00 TS 9.54197 93.4518 main 475 475 P________PP___ IO011975 9.54999 93.4575 -1 9.54999 93.4575 TC 25 9.52592 93.4404 1 3 18
1975007N08092 1975 2 NI BB NOT_NAMED 1975-01-08 00:00:00 TS 9.70000 93.5000 main 496 496 O________OO___ jtwc_io IO011975 9.70000 93.5000 -1 9.70000 93.5000 TC 25 9.70000 93.5000 1 4 16
1975007N08092 1975 2 NI BB NOT_NAMED 1975-01-08 03:00:00 TS 9.88583 93.5524 main 513 513 P________PP___ IO011975 9.89250 93.5500 -1 9.89250 93.5500 TC 25 9.87250 93.5573 1 4 16
1975007N08092 1975 2 NI BB NOT_NAMED 1975-01-08 06:00:00 TS 10.0850 93.6025 main 533 533 O________OP___ jtwc_io IO011975 10.1000 93.6000 -1 10.1000 93.6000 TC 25 10.0550 93.6076 1 4 14
1975007N08092 1975 2 NI BB NOT_NAMED 1975-01-08 09:00:00 TS 10.2767 93.6514 main 525 525 P________PP___ IO011975 10.2850 93.6500 -1 10.2850 93.6500 TC 25 10.2600 93.6541 1 4 13
1975007N08092 1975 2 NI BB NOT_NAMED 1975-01-08 12:00:00 TS 10.5000 93.7000 main 525 525 O________OO___ jtwc_io IO011975 10.5000 93.7000 -1 10.5000 93.7000 TC 25 10.5000 93.7000 1 5 11
1975007N08092 1975 2 NI BB NOT_NAMED 1975-01-08 15:00:00 TS 10.7827 93.7527 main 514 514 P________PP___ IO011975 10.7775 93.7500 -1 10.7775 93.7500 TC 25 10.7931 93.7581 1 6 10
1975007N08092 1975 2 NI BB NOT_NAMED 1975-01-08 18:00:00 TS 11.1067 93.8050 main 516 495 O________OP___ jtwc_io IO011975 11.1000 93.8000 -1 11.1000 93.8000 TC 25 11.1200 93.8149 1 7 9
1975007N08092 1975 2 NI BB NOT_NAMED 1975-01-08 21:00:00 TS 11.4540 93.8598 main 484 451 P________PP___ IO011975 11.4500 93.8575 -1 11.4500 93.8575 TC 25 11.4619 93.8643 1 7 8
1975007N08092 1975 2 NI BB NOT_NAMED 1975-01-09 00:00:00 TS 11.8000 93.9000 main 451 417 O________OO___ jtwc_io IO011975 11.8000 93.9000 -1 11.8000 93.9000 TC 25 11.8000 93.9000 1 7 3
1975007N08092 1975 2 NI BB NOT_NAMED 1975-01-09 03:00:00 TS 12.1020 93.9045 main 417 384 P________PP___ IO011975 12.1075 93.9075 -1 12.1075 93.9075 TC 25 12.0909 93.8984 1 6 0
1975007N08092 1975 2 NI BB NOT_NAMED 1975-01-09 06:00:00 TS 12.3925 93.8951 main 384 351 O________OP___ jtwc_io IO011975 12.4000 93.9000 -1 12.4000 93.9000 TC 25 12.3775 93.8854 1 6 358
1975007N08092 1975 2 NI BB NOT_NAMED 1975-01-09 09:00:00 TS 12.6818 93.8883 main 351 318 P________PP___ IO011975 12.6850 93.8925 -1 12.6850 93.8925 TC 25 12.6753 93.8797 1 6 2
1975007N08092 1975 2 NI BB NOT_NAMED 1975-01-09 12:00:00 TS 13.0000 93.9000 main 318 274 O________OO___ jtwc_io IO011975 13.0000 93.9000 -1 13.0000 93.9000 TC 25 13.0000 93.9000 1 7 4
1975007N08092 1975 2 NI BB NOT_NAMED 1975-01-09 15:00:00 TS 13.3831 93.9381 main 274 227 P________PP___ IO011975 13.3850 93.9276 -1 13.3850 93.9276 TC 25 13.3794 93.9591 1 8 8
1975007N08092 1975 2 NI BB NOT_NAMED 1975-01-09 18:00:00 TS 13.7950 94.0158 main 227 181 O________OP___ jtwc_io IO011975 13.8000 94.0000 -1 13.8000 94.0000 TC 25 13.7850 94.0475 1 9 14
1975007N08092 1975 2 NI BB NOT_NAMED 1975-01-09 21:00:00 TS 14.2044 94.1441 main 181 134 P________PP___ IO011975 14.2075 94.1350 -1 14.2075 94.1350 TC 25 14.1981 94.1623 1 9 19
1975007N08092 1975 2 NI BB NOT_NAMED 1975-01-10 00:00:00 TS 14.6000 94.3000 main 134 100 O________OO___ jtwc_io IO011975 14.6000 94.3000 -1 14.6000 94.3000 TC 25 14.6000 94.3000 1 8 21
1975007N08092 1975 2 NI BB NOT_NAMED 1975-01-10 03:00:00 TS 14.9637 94.4475 main 89 56 P________PP___ IO011975 14.9575 94.4426 -1 14.9575 94.4426 TC 25 14.9763 94.4573 1 8 23
1975007N08092 1975 2 NI BB NOT_NAMED 1975-01-10 06:00:00 TS 15.3100 94.6099 main 56 22 O________OP___ jtwc_io IO011975 15.3000 94.6000 -1 15.3000 94.6000 TC 25 15.3301 94.6296 1 8 26
1975007N08092 1975 2 NI BB NOT_NAMED 1975-01-10 09:00:00 TS 15.6547 94.7972 main 11 0 P________PP___ IO011975 15.6476 94.7898 -1 15.6476 94.7898 TC 25 15.6689 94.8121 1 8 29
1975007N08092 1975 2 NI BB NOT_NAMED 1975-01-10 12:00:00 TS 16.0000 95.0000 main 0 O________OO___ jtwc_io IO011975 16.0000 95.0000 -1 16.0000 95.0000 TC 25 16.0000 95.0000 1 8 29

About IBTrACS Database

This database is a web-friendly format of International Best Track Archive for Climate Stewardship (IBTrACS), a global best track data archive curated by NOAA dating back to 1842.

Updated: 2021-10-08